createdAt,value
2018-03-20T00:00:06.598Z,10.82
2018-03-20T00:02:34.619Z,10.55
2018-03-20T00:05:02.878Z,8.25
2018-03-20T00:07:31.128Z,7.55
2018-03-20T00:09:59.382Z,5.95
2018-03-20T00:12:28.413Z,5.25
2018-03-20T00:14:56.659Z,4.95
2018-03-20T00:17:25.657Z,4.57
2018-03-20T00:19:54.698Z,4.57
2018-03-20T00:22:22.939Z,4.68
2018-03-20T00:24:51.231Z,3.90
2018-03-20T00:27:19.505Z,4.37
2018-03-20T00:29:47.785Z,4.87
2018-03-20T00:32:16.067Z,5.35
2018-03-20T00:34:44.318Z,4.47
2018-03-20T00:37:12.565Z,4.65
2018-03-20T00:39:41.715Z,4.18
2018-03-20T00:42:09.982Z,4.57
2018-03-20T00:44:38.221Z,4.32
2018-03-20T00:47:07.250Z,4.25
2018-03-20T00:49:35.506Z,3.78
2018-03-20T00:52:03.807Z,4.32
2018-03-20T00:54:32.077Z,4.50
2018-03-20T00:57:00.321Z,4.43
2018-03-20T00:59:29.345Z,4.72
2018-03-20T01:01:57.622Z,3.97
2018-03-20T01:04:25.909Z,4.15
2018-03-20T01:06:54.166Z,3.85
2018-03-20T01:09:22.418Z,3.78
2018-03-20T01:11:50.665Z,3.83
2018-03-20T01:14:20.417Z,4.07
2018-03-20T01:16:48.733Z,3.87
2018-03-20T01:19:17.015Z,4.10
2018-03-20T01:21:45.384Z,3.75
2018-03-20T01:24:15.149Z,4.35
2018-03-20T01:26:43.381Z,3.90
2018-03-20T01:29:11.727Z,4.37
2018-03-20T01:31:39.954Z,3.95
2018-03-20T01:34:08.998Z,3.90
2018-03-20T01:36:37.242Z,3.92
2018-03-20T01:39:05.547Z,3.97
2018-03-20T01:41:33.785Z,3.87
2018-03-20T01:44:02.058Z,4.57
2018-03-20T01:46:30.306Z,4.55
2018-03-20T01:48:58.647Z,4.07
2018-03-20T01:51:26.918Z,3.85
2018-03-20T01:53:55.159Z,4.97
2018-03-20T01:56:24.183Z,4.10
2018-03-20T01:58:52.458Z,3.90
2018-03-20T02:01:20.705Z,4.28
2018-03-20T02:03:48.956Z,4.05
2018-03-20T02:06:17.294Z,3.80
2018-03-20T02:08:45.561Z,3.80
2018-03-20T02:11:13.802Z,4.00
2018-03-20T02:13:42.801Z,3.87
2018-03-20T02:16:11.045Z,3.92
2018-03-20T02:18:39.282Z,4.20
2018-03-20T02:21:07.546Z,4.22
2018-03-20T02:23:35.775Z,3.92
2018-03-20T02:26:04.779Z,4.40
2018-03-20T02:28:33.786Z,4.22
2018-03-20T02:31:02.021Z,4.25
2018-03-20T02:33:30.354Z,3.55
2018-03-20T02:35:58.593Z,3.90
2018-03-20T02:38:27.596Z,4.30
2018-03-20T02:40:56.593Z,3.95
2018-03-20T02:43:24.850Z,3.40
2018-03-20T02:45:53.862Z,4.18
2018-03-20T02:48:22.872Z,3.58
2018-03-20T02:50:51.121Z,4.15
2018-03-20T02:53:20.134Z,3.47
2018-03-20T02:55:48.374Z,3.97
2018-03-20T02:58:16.623Z,3.58
2018-03-20T03:00:44.870Z,3.87
2018-03-20T03:03:13.144Z,3.50
2018-03-20T03:05:41.367Z,3.20
2018-03-20T03:08:09.698Z,3.20
2018-03-20T03:10:37.969Z,3.62
2018-03-20T03:13:06.238Z,3.55
2018-03-20T03:15:34.481Z,3.72
2018-03-20T03:18:03.492Z,3.37
2018-03-20T03:20:31.734Z,3.22
2018-03-20T03:22:59.983Z,3.20
2018-03-20T03:25:28.227Z,3.85
2018-03-20T03:27:56.479Z,3.62
2018-03-20T03:30:25.480Z,3.45
2018-03-20T03:32:53.711Z,3.53
2018-03-20T03:35:21.952Z,3.70
2018-03-20T03:37:50.193Z,4.20
2018-03-20T03:40:19.193Z,4.40
2018-03-20T03:42:48.201Z,4.87
2018-03-20T03:45:16.450Z,4.03
2018-03-20T03:47:45.476Z,4.95
2018-03-20T03:50:13.758Z,4.53
2018-03-20T03:52:42.035Z,4.87
2018-03-20T03:55:10.302Z,4.93
2018-03-20T03:57:38.540Z,4.43
2018-03-20T04:00:07.546Z,4.68
2018-03-20T04:02:36.565Z,4.95
2018-03-20T04:05:04.791Z,4.93
2018-03-20T04:07:33.107Z,4.78
2018-03-20T04:10:01.366Z,4.57
2018-03-20T04:12:30.384Z,4.68
2018-03-20T04:14:58.625Z,4.50
2018-03-20T04:17:27.627Z,4.97
2018-03-20T04:19:55.865Z,4.62
2018-03-20T04:22:24.872Z,4.12
2018-03-20T04:24:53.889Z,4.78
2018-03-20T04:27:22.891Z,4.75
2018-03-20T04:29:51.142Z,4.47
2018-03-20T04:32:20.140Z,6.35
2018-03-20T04:34:49.148Z,4.50
2018-03-20T04:37:17.384Z,5.15
2018-03-20T04:39:45.656Z,5.47
2018-03-20T04:42:13.892Z,5.60
2018-03-20T04:44:42.135Z,5.18
2018-03-20T04:47:11.157Z,5.70
2018-03-20T04:49:39.434Z,5.20
2018-03-20T04:52:07.664Z,5.32
2018-03-20T04:54:36.671Z,5.22
2018-03-20T04:57:04.903Z,5.00
2018-03-20T04:59:33.240Z,5.05
2018-03-20T05:02:01.472Z,5.12
2018-03-20T05:04:29.734Z,4.45
2018-03-20T05:06:57.977Z,4.85
2018-03-20T05:09:26.243Z,4.55
2018-03-20T05:11:54.487Z,4.03
2018-03-20T05:14:23.488Z,3.78
2018-03-20T05:16:53.324Z,4.12
2018-03-20T05:19:38.307Z,3.60
2018-03-20T05:22:12.252Z,3.45
2018-03-20T05:24:40.476Z,4.22
2018-03-20T05:27:08.720Z,4.85
2018-03-20T05:29:37.725Z,4.22
2018-03-20T05:32:05.973Z,4.57
2018-03-20T05:34:34.983Z,4.50
2018-03-20T05:37:03.998Z,5.40
2018-03-20T05:39:32.242Z,5.28
2018-03-20T05:42:01.276Z,5.68
2018-03-20T05:44:29.504Z,6.28
2018-03-20T05:50:07.873Z,7.35
2018-03-20T05:52:36.132Z,8.25
2018-03-20T05:55:04.367Z,7.80
2018-03-20T05:57:32.705Z,7.50
2018-03-20T06:00:00.985Z,8.30
2018-03-20T06:02:29.220Z,8.13
2018-03-20T06:04:58.221Z,8.38
2018-03-20T06:07:26.516Z,8.70
2018-03-20T06:09:54.751Z,8.13
2018-03-20T06:12:23.748Z,7.12
2018-03-20T06:14:52.749Z,7.95
2018-03-20T06:17:21.757Z,8.35
2018-03-20T06:19:49.993Z,8.20
2018-03-20T06:22:18.316Z,7.55
2018-03-20T06:24:46.561Z,7.65
2018-03-20T06:27:15.566Z,7.12
2018-03-20T06:29:44.572Z,8.43
2018-03-20T06:32:12.863Z,8.05
2018-03-20T06:34:41.107Z,7.78
2018-03-20T06:37:09.414Z,8.50
2018-03-20T06:39:37.672Z,7.50
2018-03-20T06:42:05.961Z,7.37
2018-03-20T06:44:34.223Z,7.12
2018-03-20T06:47:02.474Z,6.70
2018-03-20T06:49:31.463Z,7.03
2018-03-20T06:52:00.493Z,7.32
2018-03-20T06:54:28.733Z,7.95
2018-03-20T06:56:57.769Z,9.20
2018-03-20T06:59:26.065Z,9.60
2018-03-20T07:01:54.294Z,9.15
2018-03-20T07:04:22.584Z,8.88
2018-03-20T07:06:50.866Z,8.15
2018-03-20T07:09:19.137Z,9.00
2018-03-20T07:11:47.424Z,9.23
2018-03-20T07:14:16.383Z,8.57
2018-03-20T07:16:44.681Z,9.15
2018-03-20T07:19:12.928Z,9.82
2018-03-20T07:21:41.163Z,9.50
2018-03-20T07:24:09.406Z,9.80
2018-03-20T07:26:37.671Z,10.05
2018-03-20T07:29:05.916Z,10.23
2018-03-20T07:31:35.044Z,10.05
2018-03-20T07:34:03.280Z,8.95
2018-03-20T07:36:32.276Z,8.85
2018-03-20T07:39:01.306Z,8.43
2018-03-20T07:41:29.585Z,8.88
2018-03-20T07:43:57.855Z,9.40
2018-03-20T07:46:26.099Z,8.60
2018-03-20T07:48:55.103Z,8.68
2018-03-20T07:51:23.405Z,9.43
2018-03-20T07:53:51.640Z,8.18
2018-03-20T07:56:20.672Z,8.45
2018-03-20T07:58:48.928Z,7.55
2018-03-20T08:01:17.166Z,8.38
2018-03-20T08:03:45.400Z,7.75
2018-03-20T08:06:13.653Z,7.50
2018-03-20T08:08:41.890Z,5.18
2018-03-20T08:11:10.223Z,8.30
2018-03-20T08:13:38.499Z,7.85
2018-03-20T08:16:06.745Z,7.90
2018-03-20T08:18:35.754Z,8.57
2018-03-20T08:21:04.041Z,8.07
2018-03-20T08:23:32.293Z,9.90
2018-03-20T08:26:00.535Z,10.93
2018-03-20T08:28:28.781Z,9.85
2018-03-20T08:30:57.036Z,10.43
2018-03-20T08:33:25.282Z,10.50
2018-03-20T08:35:54.306Z,18.85
2018-03-20T08:38:22.557Z,11.45
2018-03-20T08:40:51.678Z,10.90
2018-03-20T08:43:20.058Z,11.10
2018-03-20T08:45:48.324Z,10.82
2018-03-20T08:48:16.560Z,10.80
2018-03-20T08:50:45.597Z,11.25
2018-03-20T08:53:13.832Z,11.00
2018-03-20T08:55:42.856Z,10.60
2018-03-20T08:58:11.131Z,10.57
2018-03-20T09:00:39.417Z,10.48
2018-03-20T09:03:07.652Z,9.60
2018-03-20T09:05:36.656Z,12.73
2018-03-20T09:08:04.897Z,11.50
2018-03-20T09:10:33.160Z,10.70
2018-03-20T09:13:01.451Z,10.02
2018-03-20T09:15:29.690Z,9.82
2018-03-20T09:17:57.963Z,10.13
2018-03-20T09:20:26.943Z,9.15
2018-03-20T09:22:55.185Z,10.18
2018-03-20T09:25:24.189Z,7.90
2018-03-20T09:27:53.205Z,11.00
2018-03-20T09:30:21.478Z,9.85
2018-03-20T09:32:50.496Z,9.85
2018-03-20T09:35:18.750Z,10.80
2018-03-20T09:37:46.997Z,9.90
2018-03-20T09:40:16.048Z,12.88
2018-03-20T09:42:44.297Z,12.32
2018-03-20T09:45:12.535Z,13.30
2018-03-20T09:47:41.541Z,16.50
2018-03-20T09:50:10.557Z,13.75
2018-03-20T09:52:38.823Z,11.75
2018-03-20T09:55:07.082Z,9.75
2018-03-20T09:57:36.114Z,11.07
2018-03-20T10:00:04.385Z,10.38
2018-03-20T10:02:32.617Z,9.73
2018-03-20T10:05:01.629Z,10.48
2018-03-20T10:07:29.872Z,10.38
2018-03-20T10:09:58.904Z,12.13
2018-03-20T10:12:27.139Z,11.23
2018-03-20T10:14:56.181Z,14.15
2018-03-20T10:17:24.430Z,11.25
2018-03-20T10:19:52.735Z,9.90
2018-03-20T10:22:20.987Z,10.20
2018-03-20T10:24:49.253Z,9.30
2018-03-20T10:27:18.281Z,8.80
2018-03-20T10:29:46.518Z,8.55
2018-03-20T10:32:15.520Z,8.52
2018-03-20T10:34:43.825Z,8.93
2018-03-20T10:37:12.081Z,8.35
2018-03-20T10:39:40.321Z,7.72
2018-03-20T10:42:08.583Z,7.32
2018-03-20T10:44:36.818Z,7.93
2018-03-20T10:47:05.105Z,8.02
2018-03-20T10:49:34.048Z,6.40
2018-03-20T10:52:03.099Z,7.45
2018-03-20T10:54:31.343Z,7.95
2018-03-20T10:56:59.584Z,7.53
2018-03-20T10:59:27.812Z,6.62
2018-03-20T11:02:02.800Z,7.70
2018-03-20T11:04:31.830Z,6.87
2018-03-20T11:07:00.064Z,6.78
2018-03-20T11:09:29.069Z,6.18
2018-03-20T11:11:58.085Z,6.18
2018-03-20T11:14:26.352Z,6.95
2018-03-20T11:16:54.585Z,6.80
2018-03-20T11:19:22.833Z,6.87
2018-03-20T11:21:51.080Z,6.55
2018-03-20T11:24:19.400Z,7.15
2018-03-20T11:26:48.423Z,6.80
2018-03-20T11:29:17.528Z,5.72
2018-03-20T11:31:45.820Z,6.82
2018-03-20T11:34:14.057Z,7.07
2018-03-20T11:36:43.091Z,8.40
2018-03-20T11:39:11.373Z,7.57
2018-03-20T11:41:39.611Z,8.25
2018-03-20T11:44:08.608Z,8.07
2018-03-20T11:46:36.857Z,10.50
2018-03-20T11:49:05.084Z,9.48
2018-03-20T11:51:33.403Z,10.52
2018-03-20T11:54:01.710Z,11.52
2018-03-20T11:56:30.003Z,11.80
2018-03-20T11:58:58.244Z,10.95
2018-03-20T12:01:27.261Z,11.63
2018-03-20T12:03:55.504Z,10.25
2018-03-20T12:06:23.744Z,10.68
2018-03-20T12:08:51.994Z,10.35
2018-03-20T12:11:20.224Z,10.15
2018-03-20T12:13:48.530Z,10.48
2018-03-20T12:16:16.833Z,10.10
2018-03-20T12:18:45.110Z,11.48
2018-03-20T12:21:13.383Z,9.10
2018-03-20T12:23:41.658Z,8.82
2018-03-20T12:26:09.893Z,11.70
2018-03-20T12:28:38.930Z,11.52
2018-03-20T12:31:07.201Z,12.70
2018-03-20T12:33:35.462Z,11.40
2018-03-20T12:36:03.714Z,10.30
2018-03-20T12:38:32.736Z,10.02
2018-03-20T12:41:00.986Z,11.00
2018-03-20T12:43:29.996Z,10.70
2018-03-20T12:45:58.278Z,9.77
2018-03-20T12:48:26.711Z,10.18
2018-03-20T12:50:55.032Z,10.10
2018-03-20T12:53:23.278Z,8.95
2018-03-20T12:55:52.299Z,9.65
2018-03-20T12:58:20.606Z,10.02
2018-03-20T13:00:48.893Z,10.00
2018-03-20T13:03:17.255Z,9.77
2018-03-20T13:05:45.485Z,9.18
2018-03-20T13:08:14.501Z,9.07
2018-03-20T13:10:42.744Z,8.02
2018-03-20T13:13:11.778Z,9.60
2018-03-20T13:15:40.005Z,9.00
2018-03-20T13:18:08.243Z,9.00
2018-03-20T13:20:36.547Z,9.05
2018-03-20T13:23:04.759Z,10.48
2018-03-20T13:25:33.017Z,8.73
2018-03-20T13:28:02.057Z,8.68
2018-03-20T13:30:30.326Z,9.98
2018-03-20T13:32:58.577Z,9.88
2018-03-20T13:35:26.816Z,9.07
2018-03-20T13:37:55.067Z,9.38
2018-03-20T13:40:23.318Z,9.70
2018-03-20T13:42:51.561Z,8.77
2018-03-20T13:45:20.564Z,8.68
2018-03-20T13:47:48.805Z,8.20
2018-03-20T13:50:18.557Z,7.97
2018-03-20T13:52:49.379Z,8.13
2018-03-20T13:55:15.111Z,8.65
2018-03-20T13:57:43.405Z,8.05
2018-03-20T14:00:11.718Z,6.72
2018-03-20T14:02:39.939Z,7.37
2018-03-20T14:05:08.241Z,7.70
2018-03-20T14:07:36.458Z,7.20
2018-03-20T14:10:05.471Z,6.60
2018-03-20T14:12:33.766Z,6.50
2018-03-20T14:15:02.047Z,6.50
2018-03-20T14:17:30.326Z,6.28
2018-03-20T14:19:58.548Z,6.12
2018-03-20T14:22:26.859Z,6.60
2018-03-20T14:24:55.246Z,5.55
2018-03-20T14:27:23.535Z,5.90
2018-03-20T14:29:51.792Z,6.68
2018-03-20T14:32:20.066Z,6.82
2018-03-20T14:34:48.305Z,7.37
2018-03-20T14:37:16.555Z,7.12
2018-03-20T14:39:44.796Z,8.48
2018-03-20T14:42:13.179Z,7.90
2018-03-20T14:44:41.420Z,8.07
2018-03-20T14:47:10.443Z,6.57
2018-03-20T14:49:38.721Z,7.82
2018-03-20T14:52:06.993Z,7.65
2018-03-20T14:54:35.224Z,7.85
2018-03-20T14:57:04.231Z,6.35
2018-03-20T14:59:33.238Z,5.43
2018-03-20T15:02:01.537Z,6.47
2018-03-20T15:04:29.780Z,5.78
2018-03-20T15:06:58.768Z,5.78
2018-03-20T15:09:27.893Z,5.55
2018-03-20T15:11:56.164Z,5.97
2018-03-20T15:14:24.435Z,5.97
2018-03-20T15:16:52.766Z,6.85
2018-03-20T15:19:20.983Z,5.72
2018-03-20T15:21:49.266Z,4.95
2018-03-20T15:24:17.506Z,5.62
2018-03-20T15:26:45.736Z,5.68
2018-03-20T15:29:13.988Z,6.18
2018-03-20T15:31:42.269Z,5.80
2018-03-20T15:34:10.503Z,5.47
2018-03-20T15:36:39.513Z,5.45
2018-03-20T15:39:07.750Z,5.20
2018-03-20T15:41:35.996Z,5.40
2018-03-20T15:44:04.256Z,4.57
2018-03-20T15:46:32.546Z,5.57
2018-03-20T15:49:00.773Z,5.03
2018-03-20T15:51:29.806Z,5.03
2018-03-20T15:53:58.036Z,4.95
2018-03-20T15:56:27.023Z,4.68
2018-03-20T15:58:55.336Z,4.95
2018-03-20T16:01:23.615Z,4.00
2018-03-20T16:03:51.902Z,5.20
2018-03-20T16:06:20.209Z,4.40
2018-03-20T16:08:48.407Z,4.15
2018-03-20T16:11:17.443Z,4.07
2018-03-20T16:13:45.710Z,3.67
2018-03-20T16:16:13.945Z,3.20
2018-03-20T16:18:42.181Z,2.83
2018-03-20T16:21:10.419Z,3.83
2018-03-20T16:23:38.647Z,3.00
2018-03-20T16:26:06.885Z,3.70
2018-03-20T16:28:35.115Z,3.17
2018-03-20T16:31:03.358Z,3.00
2018-03-20T16:33:31.604Z,3.10
2018-03-20T16:35:59.899Z,3.40
2018-03-20T16:38:28.170Z,2.97
2018-03-20T16:40:56.400Z,3.05
2018-03-20T16:43:25.434Z,2.83
2018-03-20T16:45:53.704Z,2.70
2018-03-20T16:48:21.976Z,2.92
2018-03-20T16:50:50.219Z,2.97
2018-03-20T16:53:19.221Z,2.53
2018-03-20T16:55:48.204Z,3.10
2018-03-20T16:58:17.213Z,2.70
2018-03-20T17:00:45.510Z,2.58
2018-03-20T17:03:13.754Z,2.37
2018-03-20T17:05:42.780Z,2.87
2018-03-20T17:08:11.003Z,2.55
2018-03-20T17:10:39.240Z,2.85
2018-03-20T17:13:07.522Z,2.72
2018-03-20T17:15:35.740Z,2.65
2018-03-20T17:18:04.770Z,2.33
2018-03-20T17:20:33.040Z,2.50
2018-03-20T17:23:01.321Z,2.75
2018-03-20T17:25:29.544Z,2.22
2018-03-20T17:27:57.779Z,2.30
2018-03-20T17:30:26.016Z,2.33
2018-03-20T17:32:55.029Z,2.03
2018-03-20T17:35:23.273Z,3.10
2018-03-20T17:37:52.270Z,2.83
2018-03-20T17:40:21.263Z,3.03
2018-03-20T17:42:50.280Z,3.08
2018-03-20T17:45:18.515Z,2.50
2018-03-20T17:47:46.735Z,2.15
2018-03-20T17:50:15.018Z,2.28
2018-03-20T17:52:43.257Z,2.67
2018-03-20T17:55:12.358Z,2.85
2018-03-20T17:57:41.362Z,2.30
2018-03-20T18:00:09.579Z,3.12
2018-03-20T18:02:37.821Z,3.70
2018-03-20T18:05:06.094Z,3.10
2018-03-20T18:07:34.364Z,4.53
2018-03-20T18:10:02.599Z,3.83
2018-03-20T18:12:30.930Z,3.00
2018-03-20T18:14:59.213Z,2.40
2018-03-20T18:17:27.475Z,2.65
2018-03-20T18:19:55.696Z,3.60
2018-03-20T18:22:23.937Z,3.40
2018-03-20T18:24:52.173Z,3.20
2018-03-20T18:27:21.177Z,3.50
2018-03-20T18:29:49.460Z,4.10
2018-03-20T18:32:17.692Z,3.92
2018-03-20T18:34:46.724Z,3.85
2018-03-20T18:37:14.966Z,4.10
2018-03-20T18:39:43.280Z,4.07
2018-03-20T18:42:11.512Z,4.00
2018-03-20T18:44:39.833Z,3.20
2018-03-20T18:47:08.095Z,2.72
2018-03-20T18:49:36.321Z,2.50
2018-03-20T18:52:04.574Z,2.85
2018-03-20T18:54:32.794Z,2.72
2018-03-20T18:57:01.780Z,3.85
2018-03-20T18:59:30.776Z,3.70
2018-03-20T19:01:59.804Z,4.22
2018-03-20T19:04:28.046Z,3.95
2018-03-20T19:06:57.041Z,3.47
2018-03-20T19:09:26.080Z,2.90
2018-03-20T19:11:54.354Z,3.60
2018-03-20T19:14:22.622Z,3.17
2018-03-20T19:16:50.858Z,3.53
2018-03-20T19:19:19.888Z,3.40
2018-03-20T19:21:48.156Z,3.25
2018-03-20T19:24:16.421Z,2.97
2018-03-20T19:26:45.407Z,2.10
2018-03-20T19:29:13.710Z,2.85
2018-03-20T19:31:41.954Z,2.80
2018-03-20T19:34:10.970Z,2.12
2018-03-20T19:36:39.206Z,2.42
2018-03-20T19:39:08.200Z,2.17
2018-03-20T19:41:37.196Z,2.30
2018-03-20T19:44:06.229Z,2.45
2018-03-20T19:46:34.505Z,2.80
2018-03-20T19:49:02.772Z,5.90
2018-03-20T19:51:31.028Z,3.50
2018-03-20T19:53:59.349Z,2.50
2018-03-20T19:56:27.605Z,2.70
2018-03-20T19:58:55.836Z,2.15
2018-03-20T20:01:24.869Z,2.20
2018-03-20T20:03:53.108Z,2.25
2018-03-20T20:06:22.131Z,1.87
2018-03-20T20:08:50.410Z,1.80
2018-03-20T20:11:18.653Z,1.52
2018-03-20T20:13:47.658Z,2.17
2018-03-20T20:16:16.668Z,1.90
2018-03-20T20:18:44.900Z,2.03
2018-03-20T20:21:13.229Z,1.85
2018-03-20T20:23:41.483Z,2.15
2018-03-20T20:26:09.728Z,2.03
2018-03-20T20:28:38.058Z,1.92
2018-03-20T20:31:06.326Z,1.75
2018-03-20T20:33:34.551Z,1.42
2018-03-20T20:36:02.867Z,1.80
2018-03-20T20:38:31.113Z,2.10
2018-03-20T20:41:00.149Z,1.67
2018-03-20T20:43:28.475Z,2.00
2018-03-20T20:45:56.676Z,1.70
2018-03-20T20:48:24.981Z,1.62
2018-03-20T20:50:53.274Z,2.40
2018-03-20T20:53:21.576Z,1.60
2018-03-20T20:55:49.892Z,1.50
2018-03-20T20:58:18.124Z,2.03
2018-03-20T21:00:46.447Z,1.95
2018-03-20T21:03:14.681Z,2.10
2018-03-20T21:05:42.991Z,1.92
2018-03-20T21:08:11.256Z,2.20
2018-03-20T21:10:39.500Z,2.33
2018-03-20T21:13:07.820Z,1.92
2018-03-20T21:15:36.056Z,2.45
2018-03-20T21:18:05.052Z,3.30
2018-03-20T21:20:34.047Z,2.87
2018-03-20T21:23:03.068Z,2.50
2018-03-20T21:25:31.363Z,2.60
2018-03-20T21:27:59.645Z,2.70
2018-03-20T21:30:28.610Z,2.80
2018-03-20T21:32:56.892Z,2.85
2018-03-20T21:35:25.134Z,3.45
2018-03-20T21:37:54.161Z,2.90
2018-03-20T21:40:22.432Z,3.20
2018-03-20T21:42:50.714Z,2.85
2018-03-20T21:45:18.995Z,2.97
2018-03-20T21:47:47.301Z,3.25
2018-03-20T21:50:15.507Z,2.92
2018-03-20T21:52:44.528Z,2.55
2018-03-20T21:55:12.817Z,2.58
2018-03-20T21:57:41.093Z,2.35
2018-03-20T22:00:09.351Z,2.40
2018-03-20T22:02:37.601Z,2.10
2018-03-20T22:05:06.620Z,2.00
2018-03-20T22:07:34.860Z,2.08
2018-03-20T22:10:03.874Z,2.05
2018-03-20T22:12:32.114Z,2.17
2018-03-20T22:15:01.898Z,2.62
2018-03-20T22:17:30.160Z,2.17
2018-03-20T22:19:58.383Z,2.62
2018-03-20T22:22:27.392Z,2.60
2018-03-20T22:24:56.411Z,2.60
2018-03-20T22:27:24.647Z,2.58
2018-03-20T22:29:53.657Z,2.55
2018-03-20T22:32:21.962Z,2.67
2018-03-20T22:34:50.197Z,2.37
2018-03-20T22:37:19.203Z,2.65
2018-03-20T22:39:47.516Z,2.97
2018-03-20T22:42:15.761Z,2.70
2018-03-20T22:44:44.048Z,2.50
2018-03-20T22:47:12.293Z,2.80
2018-03-20T22:49:41.297Z,2.22
2018-03-20T22:52:09.601Z,2.70
2018-03-20T22:54:37.860Z,2.70
2018-03-20T22:57:06.149Z,2.97
2018-03-20T22:59:34.393Z,2.10
2018-03-20T23:02:03.417Z,2.40
2018-03-20T23:04:31.655Z,2.20
2018-03-20T23:07:00.675Z,2.33
2018-03-20T23:09:28.916Z,1.98
2018-03-20T23:11:57.949Z,2.22
2018-03-20T23:14:26.216Z,2.25
2018-03-20T23:16:54.448Z,3.22
2018-03-20T23:19:22.778Z,2.97
2018-03-20T23:21:51.022Z,2.75
2018-03-20T23:24:20.036Z,2.90
2018-03-20T23:26:48.273Z,2.45
2018-03-20T23:29:17.277Z,3.03
2018-03-20T23:31:46.280Z,3.33
2018-03-20T23:34:14.588Z,3.35
2018-03-20T23:36:42.829Z,2.97
2018-03-20T23:39:11.055Z,2.80
2018-03-20T23:41:39.400Z,3.30
2018-03-20T23:44:07.632Z,3.15
2018-03-20T23:46:36.664Z,2.80
2018-03-20T23:49:04.910Z,2.90
2018-03-20T23:51:33.940Z,2.90
2018-03-20T23:54:02.182Z,2.62
2018-03-20T23:56:31.185Z,3.03
2018-03-20T23:58:59.476Z,3.10
